sensor_id;sensor_type;location;lat;lon;timestamp;temperature;humidity
3300;DHT22;1662;49.310;8.134;2024-01-15T00:00:16;-2.10;99.90
3300;DHT22;1662;49.310;8.134;2024-01-15T00:02:42;-2.00;99.90
3300;DHT22;1662;49.310;8.134;2024-01-15T00:05:07;-2.00;99.90
3300;DHT22;1662;49.310;8.134;2024-01-15T00:07:33;-2.00;99.90
3300;DHT22;1662;49.310;8.134;2024-01-15T00:09:58;-2.00;99.90
3300;DHT22;1662;49.310;8.134;2024-01-15T00:12:24;-2.00;99.90
3300;DHT22;1662;49.310;8.134;2024-01-15T00:14:50;-2.00;99.90
3300;DHT22;1662;49.310;8.134;2024-01-15T00:17:17;-2.00;99.90
3300;DHT22;1662;49.310;8.134;2024-01-15T00:19:43;-1.90;99.90
3300;DHT22;1662;49.310;8.134;2024-01-15T00:22:11;-1.90;99.90
3300;DHT22;1662;49.310;8.134;2024-01-15T00:24:36;-1.80;99.90
3300;DHT22;1662;49.310;8.134;2024-01-15T00:27:05;-1.80;99.90
3300;DHT22;1662;49.310;8.134;2024-01-15T00:29:30;-1.80;99.90
3300;DHT22;1662;49.310;8.134;2024-01-15T00:31:56;-1.80;99.90
3300;DHT22;1662;49.310;8.134;2024-01-15T00:34:21;-1.80;99.90
3300;DHT22;1662;49.310;8.134;2024-01-15T00:36:47;-1.80;99.90
3300;DHT22;1662;49.310;8.134;2024-01-15T00:39:12;-1.80;99.90
3300;DHT22;1662;49.310;8.134;2024-01-15T00:41:38;-1.80;99.90
3300;DHT22;1662;49.310;8.134;2024-01-15T00:44:04;-1.70;99.90
3300;DHT22;1662;49.310;8.134;2024-01-15T00:46:29;-1.70;99.90
3300;DHT22;1662;49.310;8.134;2024-01-15T00:48:55;-1.70;99.90
3300;DHT22;1662;49.310;8.134;2024-01-15T00:51:20;-1.60;99.90
3300;DHT22;1662;49.310;8.134;2024-01-15T00:53:46;-1.60;99.90
3300;DHT22;1662;49.310;8.134;2024-01-15T00:56:12;-1.50;99.90
3300;DHT22;1662;49.310;8.134;2024-01-15T00:58:37;-1.50;99.90
3300;DHT22;1662;49.310;8.134;2024-01-15T01:01:03;-1.40;99.90
3300;DHT22;1662;49.310;8.134;2024-01-15T01:03:29;-1.40;99.90
3300;DHT22;1662;49.310;8.134;2024-01-15T01:05:57;-1.40;99.90
3300;DHT22;1662;49.310;8.134;2024-01-15T01:08:22;-1.30;99.90
3300;DHT22;1662;49.310;8.134;2024-01-15T01:10:48;-1.30;99.90
3300;DHT22;1662;49.310;8.134;2024-01-15T01:13:13;-1.30;99.90
3300;DHT22;1662;49.310;8.134;2024-01-15T01:15:39;-1.30;99.90
3300;DHT22;1662;49.310;8.134;2024-01-15T01:18:05;-1.30;99.90
3300;DHT22;1662;49.310;8.134;2024-01-15T01:20:30;-1.30;99.90
3300;DHT22;1662;49.310;8.134;2024-01-15T01:22:56;-1.20;99.90
3300;DHT22;1662;49.310;8.134;2024-01-15T01:25:21;-1.20;99.90
3300;DHT22;1662;49.310;8.134;2024-01-15T01:27:49;-1.20;99.90
3300;DHT22;1662;49.310;8.134;2024-01-15T01:30:15;-1.20;99.90
3300;DHT22;1662;49.310;8.134;2024-01-15T01:32:40;-1.10;99.90
3300;DHT22;1662;49.310;8.134;2024-01-15T01:35:06;-1.10;99.90
3300;DHT22;1662;49.310;8.134;2024-01-15T01:37:32;-1.10;99.90
3300;DHT22;1662;49.310;8.134;2024-01-15T01:39:58;-1.00;99.90
3300;DHT22;1662;49.310;8.134;2024-01-15T01:42:24;-1.00;99.90
3300;DHT22;1662;49.310;8.134;2024-01-15T01:44:49;-0.90;99.90
3300;DHT22;1662;49.310;8.134;2024-01-15T01:47:15;-0.90;99.90
3300;DHT22;1662;49.310;8.134;2024-01-15T01:49:41;-0.90;99.90
3300;DHT22;1662;49.310;8.134;2024-01-15T01:52:09;-0.90;99.90
3300;DHT22;1662;49.310;8.134;2024-01-15T01:54:35;-0.90;99.90
3300;DHT22;1662;49.310;8.134;2024-01-15T01:57:03;-0.90;99.90
3300;DHT22;1662;49.310;8.134;2024-01-15T01:59:30;-0.90;99.90
3300;DHT22;1662;49.310;8.134;2024-01-15T02:01:57;-0.90;99.90
3300;DHT22;1662;49.310;8.134;2024-01-15T02:04:27;-0.90;99.90
3300;DHT22;1662;49.310;8.134;2024-01-15T02:06:53;-0.80;99.90
3300;DHT22;1662;49.310;8.134;2024-01-15T02:09:19;-0.90;99.90
3300;DHT22;1662;49.310;8.134;2024-01-15T02:11:48;-0.90;99.90
3300;DHT22;1662;49.310;8.134;2024-01-15T02:14:14;-0.90;99.90
3300;DHT22;1662;49.310;8.134;2024-01-15T02:16:40;-0.90;99.90
3300;DHT22;1662;49.310;8.134;2024-01-15T02:19:06;-0.90;99.90
3300;DHT22;1662;49.310;8.134;2024-01-15T02:21:32;-1.00;99.90
3300;DHT22;1662;49.310;8.134;2024-01-15T02:23:58;-1.00;99.90
3300;DHT22;1662;49.310;8.134;2024-01-15T02:26:24;-1.10;99.90
3300;DHT22;1662;49.310;8.134;2024-01-15T02:28:50;-1.10;99.90
3300;DHT22;1662;49.310;8.134;2024-01-15T02:31:19;-1.00;99.90
3300;DHT22;1662;49.310;8.134;2024-01-15T02:33:44;-1.10;99.90
3300;DHT22;1662;49.310;8.134;2024-01-15T02:36:11;-1.00;99.90
3300;DHT22;1662;49.310;8.134;2024-01-15T02:38:37;-1.20;99.90
3300;DHT22;1662;49.310;8.134;2024-01-15T02:41:03;-1.10;99.90
3300;DHT22;1662;49.310;8.134;2024-01-15T02:43:28;-1.10;99.90
3300;DHT22;1662;49.310;8.134;2024-01-15T02:45:54;-1.20;99.90
3300;DHT22;1662;49.310;8.134;2024-01-15T02:48:19;-1.10;99.90
3300;DHT22;1662;49.310;8.134;2024-01-15T02:50:45;-1.10;99.90
3300;DHT22;1662;49.310;8.134;2024-01-15T02:53:11;-1.20;99.90
3300;DHT22;1662;49.310;8.134;2024-01-15T02:55:36;-1.10;99.90
3300;DHT22;1662;49.310;8.134;2024-01-15T02:58:02;-1.10;99.90
3300;DHT22;1662;49.310;8.134;2024-01-15T03:00:28;-1.20;99.90
3300;DHT22;1662;49.310;8.134;2024-01-15T03:02:56;-1.20;99.90
3300;DHT22;1662;49.310;8.134;2024-01-15T03:05:22;-1.10;99.90
3300;DHT22;1662;49.310;8.134;2024-01-15T03:07:47;-1.20;99.90
3300;DHT22;1662;49.310;8.134;2024-01-15T03:10:13;-1.10;99.90
3300;DHT22;1662;49.310;8.134;2024-01-15T03:12:38;-1.20;99.90
3300;DHT22;1662;49.310;8.134;2024-01-15T03:15:05;-1.20;99.90
3300;DHT22;1662;49.310;8.134;2024-01-15T03:17:30;-1.20;99.90
3300;DHT22;1662;49.310;8.134;2024-01-15T03:19:56;-1.20;99.90
3300;DHT22;1662;49.310;8.134;2024-01-15T03:22:21;-1.20;99.90
3300;DHT22;1662;49.310;8.134;2024-01-15T03:24:47;-1.10;99.90
3300;DHT22;1662;49.310;8.134;2024-01-15T03:27:12;-1.10;99.90
3300;DHT22;1662;49.310;8.134;2024-01-15T03:29:39;-1.10;99.90
3300;DHT22;1662;49.310;8.134;2024-01-15T03:32:05;-1.20;99.90
3300;DHT22;1662;49.310;8.134;2024-01-15T03:34:31;-1.10;99.90
3300;DHT22;1662;49.310;8.134;2024-01-15T03:36:56;-1.10;99.90
3300;DHT22;1662;49.310;8.134;2024-01-15T03:39:24;-1.10;99.90
3300;DHT22;1662;49.310;8.134;2024-01-15T03:41:50;-1.00;99.90
3300;DHT22;1662;49.310;8.134;2024-01-15T03:44:16;-0.90;99.90
3300;DHT22;1662;49.310;8.134;2024-01-15T03:46:41;-0.90;99.90
3300;DHT22;1662;49.310;8.134;2024-01-15T03:49:07;-1.00;99.90
3300;DHT22;1662;49.310;8.134;2024-01-15T03:51:32;-1.00;99.90
3300;DHT22;1662;49.310;8.134;2024-01-15T03:53:58;-1.00;99.90
3300;DHT22;1662;49.310;8.134;2024-01-15T03:56:23;-1.00;99.90
3300;DHT22;1662;49.310;8.134;2024-01-15T03:58:49;-1.00;99.90
3300;DHT22;1662;49.310;8.134;2024-01-15T04:01:15;-1.00;99.90
3300;DHT22;1662;49.310;8.134;2024-01-15T04:03:40;-1.00;99.90
3300;DHT22;1662;49.310;8.134;2024-01-15T04:06:06;-0.90;99.90
3300;DHT22;1662;49.310;8.134;2024-01-15T04:08:31;-0.90;99.90
3300;DHT22;1662;49.310;8.134;2024-01-15T04:10:57;-0.90;99.90
3300;DHT22;1662;49.310;8.134;2024-01-15T04:13:23;-0.80;99.90
3300;DHT22;1662;49.310;8.134;2024-01-15T04:15:48;-0.90;99.90
3300;DHT22;1662;49.310;8.134;2024-01-15T04:18:16;-0.80;99.90
3300;DHT22;1662;49.310;8.134;2024-01-15T04:20:42;-0.80;99.90
3300;DHT22;1662;49.310;8.134;2024-01-15T04:23:08;-0.80;99.90
3300;DHT22;1662;49.310;8.134;2024-01-15T04:25:34;-0.80;99.90
3300;DHT22;1662;49.310;8.134;2024-01-15T04:27:59;-0.80;99.90
3300;DHT22;1662;49.310;8.134;2024-01-15T04:30:25;-0.70;99.90
3300;DHT22;1662;49.310;8.134;2024-01-15T04:32:51;-0.70;99.90
3300;DHT22;1662;49.310;8.134;2024-01-15T04:35:16;-0.70;99.90
3300;DHT22;1662;49.310;8.134;2024-01-15T04:37:44;-0.60;99.90
3300;DHT22;1662;49.310;8.134;2024-01-15T04:40:10;-0.50;99.90
3300;DHT22;1662;49.310;8.134;2024-01-15T04:42:36;-0.50;99.90
3300;DHT22;1662;49.310;8.134;2024-01-15T04:45:02;-0.50;99.90
3300;DHT22;1662;49.310;8.134;2024-01-15T04:47:27;-0.60;99.90
3300;DHT22;1662;49.310;8.134;2024-01-15T04:49:53;-0.50;99.90
3300;DHT22;1662;49.310;8.134;2024-01-15T04:52:19;-0.50;99.90
3300;DHT22;1662;49.310;8.134;2024-01-15T04:54:44;-0.50;99.90
3300;DHT22;1662;49.310;8.134;2024-01-15T04:57:12;-0.40;99.90
3300;DHT22;1662;49.310;8.134;2024-01-15T04:59:38;-0.40;99.90
3300;DHT22;1662;49.310;8.134;2024-01-15T05:02:03;-0.30;99.90
3300;DHT22;1662;49.310;8.134;2024-01-15T05:04:31;-0.30;99.90
3300;DHT22;1662;49.310;8.134;2024-01-15T05:06:58;-0.30;99.90
3300;DHT22;1662;49.310;8.134;2024-01-15T05:09:25;-0.30;99.90
3300;DHT22;1662;49.310;8.134;2024-01-15T05:11:51;-0.30;99.90
3300;DHT22;1662;49.310;8.134;2024-01-15T05:14:17;-0.30;99.90
3300;DHT22;1662;49.310;8.134;2024-01-15T05:16:49;-0.30;99.90
3300;DHT22;1662;49.310;8.134;2024-01-15T05:19:15;-0.40;99.90
3300;DHT22;1662;49.310;8.134;2024-01-15T05:21:41;-0.30;99.90
3300;DHT22;1662;49.310;8.134;2024-01-15T05:24:07;-0.30;99.90
3300;DHT22;1662;49.310;8.134;2024-01-15T05:26:33;-0.40;99.90
3300;DHT22;1662;49.310;8.134;2024-01-15T05:28:59;-0.40;99.90
3300;DHT22;1662;49.310;8.134;2024-01-15T05:31:24;-0.30;99.90
3300;DHT22;1662;49.310;8.134;2024-01-15T05:33:50;-0.40;99.90
3300;DHT22;1662;49.310;8.134;2024-01-15T05:36:16;-0.40;99.90
3300;DHT22;1662;49.310;8.134;2024-01-15T05:38:41;-0.50;99.90
3300;DHT22;1662;49.310;8.134;2024-01-15T05:41:07;-0.50;99.90
3300;DHT22;1662;49.310;8.134;2024-01-15T05:43:33;-0.50;99.90
3300;DHT22;1662;49.310;8.134;2024-01-15T05:45:58;-0.50;99.90
3300;DHT22;1662;49.310;8.134;2024-01-15T05:48:24;-0.50;99.90
3300;DHT22;1662;49.310;8.134;2024-01-15T05:50:49;-0.50;99.90
3300;DHT22;1662;49.310;8.134;2024-01-15T05:53:15;-0.40;99.90
3300;DHT22;1662;49.310;8.134;2024-01-15T05:55:41;-0.40;99.90
3300;DHT22;1662;49.310;8.134;2024-01-15T05:58:06;-0.40;99.90
3300;DHT22;1662;49.310;8.134;2024-01-15T06:00:32;-0.50;99.90
3300;DHT22;1662;49.310;8.134;2024-01-15T06:03:01;-0.50;99.90
3300;DHT22;1662;49.310;8.134;2024-01-15T06:05:27;-0.40;99.90
3300;DHT22;1662;49.310;8.134;2024-01-15T06:07:53;-0.30;99.90
3300;DHT22;1662;49.310;8.134;2024-01-15T06:10:18;-0.30;99.90
3300;DHT22;1662;49.310;8.134;2024-01-15T06:12:44;-0.30;99.90
3300;DHT22;1662;49.310;8.134;2024-01-15T06:15:10;-0.30;99.90
3300;DHT22;1662;49.310;8.134;2024-01-15T06:17:36;-0.40;99.90
3300;DHT22;1662;49.310;8.134;2024-01-15T06:20:03;-0.30;99.90
3300;DHT22;1662;49.310;8.134;2024-01-15T06:22:29;-0.30;99.90
3300;DHT22;1662;49.310;8.134;2024-01-15T06:24:55;-0.30;99.90
3300;DHT22;1662;49.310;8.134;2024-01-15T06:27:23;-0.20;99.90
3300;DHT22;1662;49.310;8.134;2024-01-15T06:29:49;-0.20;99.90
3300;DHT22;1662;49.310;8.134;2024-01-15T06:32:15;-0.20;99.90
3300;DHT22;1662;49.310;8.134;2024-01-15T06:34:40;-0.20;99.90
3300;DHT22;1662;49.310;8.134;2024-01-15T06:37:06;-0.30;99.90
3300;DHT22;1662;49.310;8.134;2024-01-15T06:39:32;-0.20;99.90
3300;DHT22;1662;49.310;8.134;2024-01-15T06:41:57;-0.10;99.90
3300;DHT22;1662;49.310;8.134;2024-01-15T06:44:23;0.00;99.90
3300;DHT22;1662;49.310;8.134;2024-01-15T06:46:49;0.00;99.90
3300;DHT22;1662;49.310;8.134;2024-01-15T06:49:15;0.10;99.90
3300;DHT22;1662;49.310;8.134;2024-01-15T06:51:40;0.10;99.90
3300;DHT22;1662;49.310;8.134;2024-01-15T06:54:07;0.10;99.90
3300;DHT22;1662;49.310;8.134;2024-01-15T06:56:32;0.20;99.90
3300;DHT22;1662;49.310;8.134;2024-01-15T06:58:58;0.20;99.90
3300;DHT22;1662;49.310;8.134;2024-01-15T07:01:26;0.20;99.90
3300;DHT22;1662;49.310;8.134;2024-01-15T07:03:51;0.20;99.90
3300;DHT22;1662;49.310;8.134;2024-01-15T07:06:17;0.20;99.90
3300;DHT22;1662;49.310;8.134;2024-01-15T07:08:43;0.20;99.90
3300;DHT22;1662;49.310;8.134;2024-01-15T07:11:08;0.20;99.90
3300;DHT22;1662;49.310;8.134;2024-01-15T07:13:36;0.20;99.90
3300;DHT22;1662;49.310;8.134;2024-01-15T07:16:01;0.20;99.90
3300;DHT22;1662;49.310;8.134;2024-01-15T07:18:27;0.20;99.90
3300;DHT22;1662;49.310;8.134;2024-01-15T07:20:53;0.20;99.90
3300;DHT22;1662;49.310;8.134;2024-01-15T07:23:18;0.20;99.90
3300;DHT22;1662;49.310;8.134;2024-01-15T07:25:44;0.30;99.90
3300;DHT22;1662;49.310;8.134;2024-01-15T07:28:10;0.30;99.90
3300;DHT22;1662;49.310;8.134;2024-01-15T07:30:36;0.30;99.90
3300;DHT22;1662;49.310;8.134;2024-01-15T07:33:04;0.30;99.90
3300;DHT22;1662;49.310;8.134;2024-01-15T07:35:30;0.30;99.90
3300;DHT22;1662;49.310;8.134;2024-01-15T07:37:56;0.30;99.90
3300;DHT22;1662;49.310;8.134;2024-01-15T07:40:21;0.30;99.90
3300;DHT22;1662;49.310;8.134;2024-01-15T07:42:47;0.30;99.90
3300;DHT22;1662;49.310;8.134;2024-01-15T07:45:13;0.30;99.90
3300;DHT22;1662;49.310;8.134;2024-01-15T07:47:38;0.40;99.90
3300;DHT22;1662;49.310;8.134;2024-01-15T07:50:04;0.40;99.90
3300;DHT22;1662;49.310;8.134;2024-01-15T07:52:30;0.40;99.90
3300;DHT22;1662;49.310;8.134;2024-01-15T07:54:56;0.40;99.90
3300;DHT22;1662;49.310;8.134;2024-01-15T07:57:22;0.50;99.90
3300;DHT22;1662;49.310;8.134;2024-01-15T07:59:48;0.50;99.90
3300;DHT22;1662;49.310;8.134;2024-01-15T08:02:14;0.50;99.90
3300;DHT22;1662;49.310;8.134;2024-01-15T08:04:39;0.50;99.90
3300;DHT22;1662;49.310;8.134;2024-01-15T08:07:07;0.50;99.90
3300;DHT22;1662;49.310;8.134;2024-01-15T08:09:33;0.50;99.90
3300;DHT22;1662;49.310;8.134;2024-01-15T08:11:59;0.60;99.90
3300;DHT22;1662;49.310;8.134;2024-01-15T08:14:25;0.70;99.90
3300;DHT22;1662;49.310;8.134;2024-01-15T08:16:51;0.80;99.90
3300;DHT22;1662;49.310;8.134;2024-01-15T08:19:18;0.80;99.90
3300;DHT22;1662;49.310;8.134;2024-01-15T08:21:45;0.80;99.90
3300;DHT22;1662;49.310;8.134;2024-01-15T08:24:11;0.80;99.90
3300;DHT22;1662;49.310;8.134;2024-01-15T08:26:36;0.80;99.90
3300;DHT22;1662;49.310;8.134;2024-01-15T08:29:02;0.80;99.90
3300;DHT22;1662;49.310;8.134;2024-01-15T08:31:28;0.70;99.90
3300;DHT22;1662;49.310;8.134;2024-01-15T08:33:53;0.70;99.90
3300;DHT22;1662;49.310;8.134;2024-01-15T08:36:19;0.70;99.90
3300;DHT22;1662;49.310;8.134;2024-01-15T08:38:45;0.70;99.90
3300;DHT22;1662;49.310;8.134;2024-01-15T08:41:10;0.70;99.90
3300;DHT22;1662;49.310;8.134;2024-01-15T08:43:36;0.60;99.90
3300;DHT22;1662;49.310;8.134;2024-01-15T08:46:02;0.60;99.90
3300;DHT22;1662;49.310;8.134;2024-01-15T08:48:29;0.60;99.90
3300;DHT22;1662;49.310;8.134;2024-01-15T08:50:57;0.50;99.90
3300;DHT22;1662;49.310;8.134;2024-01-15T08:53:23;0.60;99.90
3300;DHT22;1662;49.310;8.134;2024-01-15T08:55:49;0.50;99.90
3300;DHT22;1662;49.310;8.134;2024-01-15T08:58:15;0.60;99.90
3300;DHT22;1662;49.310;8.134;2024-01-15T09:00:41;0.50;99.90
3300;DHT22;1662;49.310;8.134;2024-01-15T09:03:06;0.50;99.90
3300;DHT22;1662;49.310;8.134;2024-01-15T09:05:36;0.50;99.90
3300;DHT22;1662;49.310;8.134;2024-01-15T09:08:02;0.40;99.90
3300;DHT22;1662;49.310;8.134;2024-01-15T09:10:27;0.50;99.90
3300;DHT22;1662;49.310;8.134;2024-01-15T09:12:53;0.40;99.90
3300;DHT22;1662;49.310;8.134;2024-01-15T09:15:18;0.40;99.90
3300;DHT22;1662;49.310;8.134;2024-01-15T09:17:45;0.40;99.90
3300;DHT22;1662;49.310;8.134;2024-01-15T09:20:12;0.40;99.90
3300;DHT22;1662;49.310;8.134;2024-01-15T09:22:40;0.40;99.90
3300;DHT22;1662;49.310;8.134;2024-01-15T09:25:08;0.30;99.90
3300;DHT22;1662;49.310;8.134;2024-01-15T09:27:35;0.30;99.90
3300;DHT22;1662;49.310;8.134;2024-01-15T09:30:02;0.30;99.90
3300;DHT22;1662;49.310;8.134;2024-01-15T09:32:28;0.30;99.90
3300;DHT22;1662;49.310;8.134;2024-01-15T09:34:53;0.40;99.90
3300;DHT22;1662;49.310;8.134;2024-01-15T09:37:19;0.40;99.90
3300;DHT22;1662;49.310;8.134;2024-01-15T09:39:44;0.50;99.90
3300;DHT22;1662;49.310;8.134;2024-01-15T09:42:10;0.50;99.90
3300;DHT22;1662;49.310;8.134;2024-01-15T09:44:36;0.50;99.90
3300;DHT22;1662;49.310;8.134;2024-01-15T09:47:05;0.50;99.90
3300;DHT22;1662;49.310;8.134;2024-01-15T09:49:35;0.50;99.90
3300;DHT22;1662;49.310;8.134;2024-01-15T09:52:01;0.50;99.90
3300;DHT22;1662;49.310;8.134;2024-01-15T09:54:27;0.50;99.90
3300;DHT22;1662;49.310;8.134;2024-01-15T09:56:54;0.50;99.90
3300;DHT22;1662;49.310;8.134;2024-01-15T09:59:20;0.60;99.90
3300;DHT22;1662;49.310;8.134;2024-01-15T10:01:47;0.50;99.90
3300;DHT22;1662;49.310;8.134;2024-01-15T10:04:15;0.60;99.90
3300;DHT22;1662;49.310;8.134;2024-01-15T10:06:45;0.60;99.90
3300;DHT22;1662;49.310;8.134;2024-01-15T10:09:14;0.60;99.90
3300;DHT22;1662;49.310;8.134;2024-01-15T10:11:43;0.60;99.90
3300;DHT22;1662;49.310;8.134;2024-01-15T10:14:10;0.70;99.90
3300;DHT22;1662;49.310;8.134;2024-01-15T10:16:40;0.80;99.90
3300;DHT22;1662;49.310;8.134;2024-01-15T10:19:06;0.80;99.90
3300;DHT22;1662;49.310;8.134;2024-01-15T10:21:32;0.80;99.90
3300;DHT22;1662;49.310;8.134;2024-01-15T10:24:01;0.80;99.90
3300;DHT22;1662;49.310;8.134;2024-01-15T10:26:28;0.80;99.90
3300;DHT22;1662;49.310;8.134;2024-01-15T10:28:54;0.80;99.90
3300;DHT22;1662;49.310;8.134;2024-01-15T10:31:19;0.90;99.90
3300;DHT22;1662;49.310;8.134;2024-01-15T10:33:47;1.00;99.90
3300;DHT22;1662;49.310;8.134;2024-01-15T10:36:13;1.00;99.90
3300;DHT22;1662;49.310;8.134;2024-01-15T10:38:43;0.90;99.90
3300;DHT22;1662;49.310;8.134;2024-01-15T10:41:08;0.90;99.90
3300;DHT22;1662;49.310;8.134;2024-01-15T10:43:34;0.90;99.90
3300;DHT22;1662;49.310;8.134;2024-01-15T10:46:02;1.00;99.90
3300;DHT22;1662;49.310;8.134;2024-01-15T10:48:28;1.00;99.90
3300;DHT22;1662;49.310;8.134;2024-01-15T10:50:56;1.00;99.90
3300;DHT22;1662;49.310;8.134;2024-01-15T10:53:23;1.00;99.90
3300;DHT22;1662;49.310;8.134;2024-01-15T10:55:50;1.10;99.90
3300;DHT22;1662;49.310;8.134;2024-01-15T10:58:17;1.10;99.90
3300;DHT22;1662;49.310;8.134;2024-01-15T11:00:44;1.10;99.90
3300;DHT22;1662;49.310;8.134;2024-01-15T11:03:10;1.20;99.90
3300;DHT22;1662;49.310;8.134;2024-01-15T11:05:39;1.20;99.90
3300;DHT22;1662;49.310;8.134;2024-01-15T11:08:06;1.20;99.90
3300;DHT22;1662;49.310;8.134;2024-01-15T11:10:45;1.20;99.90
3300;DHT22;1662;49.310;8.134;2024-01-15T11:16:01;1.20;99.90
3300;DHT22;1662;49.310;8.134;2024-01-15T11:18:32;1.10;99.90
3300;DHT22;1662;49.310;8.134;2024-01-15T11:23:47;1.20;99.90
3300;DHT22;1662;49.310;8.134;2024-01-15T11:28:55;1.20;99.90
3300;DHT22;1662;49.310;8.134;2024-01-15T11:34:08;1.20;99.90
3300;DHT22;1662;49.310;8.134;2024-01-15T11:42:11;1.10;99.90
3300;DHT22;1662;49.310;8.134;2024-01-15T11:44:38;1.20;99.90
3300;DHT22;1662;49.310;8.134;2024-01-15T11:47:06;1.30;99.90
3300;DHT22;1662;49.310;8.134;2024-01-15T11:52:20;1.20;99.90
3300;DHT22;1662;49.310;8.134;2024-01-15T11:57:37;1.20;99.90
3300;DHT22;1662;49.310;8.134;2024-01-15T12:00:07;1.30;99.90
3300;DHT22;1662;49.310;8.134;2024-01-15T12:02:34;1.30;99.90
3300;DHT22;1662;49.310;8.134;2024-01-15T12:04:59;1.30;99.90
3300;DHT22;1662;49.310;8.134;2024-01-15T12:07:25;1.20;99.90
3300;DHT22;1662;49.310;8.134;2024-01-15T12:09:51;1.20;99.90
3300;DHT22;1662;49.310;8.134;2024-01-15T12:15:24;1.30;99.90
3300;DHT22;1662;49.310;8.134;2024-01-15T12:17:50;1.40;99.90
3300;DHT22;1662;49.310;8.134;2024-01-15T12:20:17;1.50;99.90
3300;DHT22;1662;49.310;8.134;2024-01-15T12:22:44;1.50;99.90
3300;DHT22;1662;49.310;8.134;2024-01-15T12:25:10;1.40;99.90
3300;DHT22;1662;49.310;8.134;2024-01-15T12:27:36;1.40;99.90
3300;DHT22;1662;49.310;8.134;2024-01-15T12:30:02;1.40;99.90
3300;DHT22;1662;49.310;8.134;2024-01-15T12:32:29;1.50;99.90
3300;DHT22;1662;49.310;8.134;2024-01-15T12:34:54;1.50;99.90
3300;DHT22;1662;49.310;8.134;2024-01-15T12:37:20;1.50;99.90
3300;DHT22;1662;49.310;8.134;2024-01-15T12:39:47;1.50;99.90
3300;DHT22;1662;49.310;8.134;2024-01-15T12:42:14;1.50;99.90
3300;DHT22;1662;49.310;8.134;2024-01-15T12:44:40;1.50;99.90
3300;DHT22;1662;49.310;8.134;2024-01-15T12:47:06;1.70;99.90
3300;DHT22;1662;49.310;8.134;2024-01-15T12:49:32;1.80;99.90
3300;DHT22;1662;49.310;8.134;2024-01-15T12:51:59;1.90;99.90
3300;DHT22;1662;49.310;8.134;2024-01-15T12:54:25;2.00;99.90
3300;DHT22;1662;49.310;8.134;2024-01-15T12:56:51;1.90;99.90
3300;DHT22;1662;49.310;8.134;2024-01-15T12:59:17;1.80;99.90
3300;DHT22;1662;49.310;8.134;2024-01-15T13:01:44;1.80;99.90
3300;DHT22;1662;49.310;8.134;2024-01-15T13:04:10;1.80;99.90
3300;DHT22;1662;49.310;8.134;2024-01-15T13:06:36;1.70;99.90
3300;DHT22;1662;49.310;8.134;2024-01-15T13:09:03;1.70;99.90
3300;DHT22;1662;49.310;8.134;2024-01-15T13:11:32;1.60;99.90
3300;DHT22;1662;49.310;8.134;2024-01-15T13:13:58;1.60;99.90
3300;DHT22;1662;49.310;8.134;2024-01-15T13:16:24;1.70;99.90
3300;DHT22;1662;49.310;8.134;2024-01-15T13:18:53;1.80;99.90
3300;DHT22;1662;49.310;8.134;2024-01-15T13:21:19;1.80;99.90
3300;DHT22;1662;49.310;8.134;2024-01-15T13:23:44;1.80;99.90
3300;DHT22;1662;49.310;8.134;2024-01-15T13:26:14;1.70;99.90
3300;DHT22;1662;49.310;8.134;2024-01-15T13:28:40;1.90;99.90
3300;DHT22;1662;49.310;8.134;2024-01-15T13:31:06;2.00;99.90
3300;DHT22;1662;49.310;8.134;2024-01-15T13:33:32;2.20;99.90
3300;DHT22;1662;49.310;8.134;2024-01-15T13:36:00;2.20;99.90
3300;DHT22;1662;49.310;8.134;2024-01-15T13:38:25;2.40;99.90
3300;DHT22;1662;49.310;8.134;2024-01-15T13:40:53;2.60;99.90
3300;DHT22;1662;49.310;8.134;2024-01-15T13:43:20;2.90;99.90
3300;DHT22;1662;49.310;8.134;2024-01-15T13:45:46;3.10;99.90
3300;DHT22;1662;49.310;8.134;2024-01-15T13:48:12;3.30;99.90
3300;DHT22;1662;49.310;8.134;2024-01-15T13:50:37;3.50;99.90
3300;DHT22;1662;49.310;8.134;2024-01-15T13:53:03;3.60;99.90
3300;DHT22;1662;49.310;8.134;2024-01-15T13:55:29;3.60;99.90
3300;DHT22;1662;49.310;8.134;2024-01-15T13:57:55;3.70;99.90
3300;DHT22;1662;49.310;8.134;2024-01-15T14:00:21;3.80;99.90
3300;DHT22;1662;49.310;8.134;2024-01-15T14:02:47;3.90;99.90
3300;DHT22;1662;49.310;8.134;2024-01-15T14:05:13;4.10;99.90
3300;DHT22;1662;49.310;8.134;2024-01-15T14:07:39;4.40;99.90
3300;DHT22;1662;49.310;8.134;2024-01-15T14:10:05;4.50;99.90
3300;DHT22;1662;49.310;8.134;2024-01-15T14:12:33;4.80;99.90
3300;DHT22;1662;49.310;8.134;2024-01-15T14:14:59;4.80;99.90
3300;DHT22;1662;49.310;8.134;2024-01-15T14:17:25;4.90;99.90
3300;DHT22;1662;49.310;8.134;2024-01-15T14:19:52;4.90;99.90
3300;DHT22;1662;49.310;8.134;2024-01-15T14:22:18;5.00;99.90
3300;DHT22;1662;49.310;8.134;2024-01-15T14:24:44;4.80;99.90
3300;DHT22;1662;49.310;8.134;2024-01-15T14:27:10;4.50;99.90
3300;DHT22;1662;49.310;8.134;2024-01-15T14:29:35;4.30;99.90
3300;DHT22;1662;49.310;8.134;2024-01-15T14:32:02;4.00;99.90
3300;DHT22;1662;49.310;8.134;2024-01-15T14:37:03;3.60;99.90
3300;DHT22;1662;49.310;8.134;2024-01-15T14:39:29;3.30;99.90
3300;DHT22;1662;49.310;8.134;2024-01-15T14:41:54;3.10;99.90
3300;DHT22;1662;49.310;8.134;2024-01-15T14:44:20;2.90;99.90
3300;DHT22;1662;49.310;8.134;2024-01-15T14:46:46;2.70;99.90
3300;DHT22;1662;49.310;8.134;2024-01-15T14:49:12;2.60;99.90
3300;DHT22;1662;49.310;8.134;2024-01-15T14:51:37;2.60;99.90
3300;DHT22;1662;49.310;8.134;2024-01-15T14:54:03;2.50;99.90
3300;DHT22;1662;49.310;8.134;2024-01-15T14:56:29;2.40;99.90
3300;DHT22;1662;49.310;8.134;2024-01-15T14:58:54;2.20;99.90
3300;DHT22;1662;49.310;8.134;2024-01-15T15:01:20;2.10;99.90
3300;DHT22;1662;49.310;8.134;2024-01-15T15:03:45;2.00;99.90
3300;DHT22;1662;49.310;8.134;2024-01-15T15:06:11;1.90;99.90
3300;DHT22;1662;49.310;8.134;2024-01-15T15:08:37;1.90;99.90
3300;DHT22;1662;49.310;8.134;2024-01-15T15:11:06;2.00;99.90
3300;DHT22;1662;49.310;8.134;2024-01-15T15:13:33;1.80;99.90
3300;DHT22;1662;49.310;8.134;2024-01-15T15:16:00;1.80;99.90
3300;DHT22;1662;49.310;8.134;2024-01-15T15:18:26;1.80;99.90
3300;DHT22;1662;49.310;8.134;2024-01-15T15:20:51;1.70;99.90
3300;DHT22;1662;49.310;8.134;2024-01-15T15:23:18;1.70;99.90
3300;DHT22;1662;49.310;8.134;2024-01-15T15:25:46;1.70;99.90
3300;DHT22;1662;49.310;8.134;2024-01-15T15:28:12;1.70;99.90
3300;DHT22;1662;49.310;8.134;2024-01-15T15:30:39;2.20;99.90
3300;DHT22;1662;49.310;8.134;2024-01-15T15:33:05;2.80;99.90
3300;DHT22;1662;49.310;8.134;2024-01-15T15:35:31;2.80;99.90
3300;DHT22;1662;49.310;8.134;2024-01-15T15:37:57;2.50;99.90
3300;DHT22;1662;49.310;8.134;2024-01-15T15:40:22;2.40;99.90
3300;DHT22;1662;49.310;8.134;2024-01-15T15:42:52;2.60;99.90
3300;DHT22;1662;49.310;8.134;2024-01-15T15:45:20;2.60;99.90
3300;DHT22;1662;49.310;8.134;2024-01-15T15:47:46;2.30;99.90
3300;DHT22;1662;49.310;8.134;2024-01-15T15:50:11;2.10;99.90
3300;DHT22;1662;49.310;8.134;2024-01-15T15:52:37;2.00;99.90
3300;DHT22;1662;49.310;8.134;2024-01-15T15:55:05;1.80;99.90
3300;DHT22;1662;49.310;8.134;2024-01-15T15:57:33;1.70;99.90
3300;DHT22;1662;49.310;8.134;2024-01-15T15:59:58;1.70;99.90
3300;DHT22;1662;49.310;8.134;2024-01-15T16:02:24;1.60;99.90
3300;DHT22;1662;49.310;8.134;2024-01-15T16:04:49;1.50;99.90
3300;DHT22;1662;49.310;8.134;2024-01-15T16:07:15;1.50;99.90
3300;DHT22;1662;49.310;8.134;2024-01-15T16:09:41;1.40;99.90
3300;DHT22;1662;49.310;8.134;2024-01-15T16:12:07;1.40;99.90
3300;DHT22;1662;49.310;8.134;2024-01-15T16:14:34;1.80;99.90
3300;DHT22;1662;49.310;8.134;2024-01-15T16:16:59;2.40;99.90
3300;DHT22;1662;49.310;8.134;2024-01-15T16:19:25;2.30;99.90
3300;DHT22;1662;49.310;8.134;2024-01-15T16:21:54;2.20;99.90
3300;DHT22;1662;49.310;8.134;2024-01-15T16:24:20;1.90;99.90
3300;DHT22;1662;49.310;8.134;2024-01-15T16:26:47;1.80;99.90
3300;DHT22;1662;49.310;8.134;2024-01-15T16:29:13;1.60;99.90
3300;DHT22;1662;49.310;8.134;2024-01-15T16:31:38;1.50;99.90